sensor_id;sensor_type;location;lat;lon;timestamp;P1;durP1;ratioP1;P2;durP2;ratioP2
46318;SDS011;32042;50.916;2.926;2023-03-01T00:03:28;6.20;;;5.60;;
46318;SDS011;32042;50.916;2.926;2023-03-01T00:05:54;6.07;;;5.47;;
46318;SDS011;32042;50.916;2.926;2023-03-01T00:08:20;5.63;;;5.13;;
46318;SDS011;32042;50.916;2.926;2023-03-01T00:10:46;8.70;;;5.47;;
46318;SDS011;32042;50.916;2.926;2023-03-01T00:13:12;5.97;;;5.37;;
46318;SDS011;32042;50.916;2.926;2023-03-01T00:15:39;7.53;;;4.93;;
46318;SDS011;32042;50.916;2.926;2023-03-01T00:18:06;6.10;;;5.27;;
46318;SDS011;32042;50.916;2.926;2023-03-01T00:20:33;6.33;;;5.70;;
46318;SDS011;32042;50.916;2.926;2023-03-01T00:22:59;7.77;;;5.07;;
46318;SDS011;32042;50.916;2.926;2023-03-01T00:25:25;5.67;;;5.17;;
46318;SDS011;32042;50.916;2.926;2023-03-01T00:27:51;7.77;;;5.37;;
46318;SDS011;32042;50.916;2.926;2023-03-01T00:30:17;6.13;;;5.53;;
46318;SDS011;32042;50.916;2.926;2023-03-01T00:32:43;6.00;;;5.40;;
46318;SDS011;32042;50.916;2.926;2023-03-01T00:35:09;6.40;;;5.80;;
46318;SDS011;32042;50.916;2.926;2023-03-01T00:37:35;6.00;;;5.43;;
46318;SDS011;32042;50.916;2.926;2023-03-01T00:40:01;7.23;;;5.80;;
46318;SDS011;32042;50.916;2.926;2023-03-01T00:42:31;6.40;;;5.80;;
46318;SDS011;32042;50.916;2.926;2023-03-01T00:44:57;7.30;;;6.27;;
46318;SDS011;32042;50.916;2.926;2023-03-01T00:47:23;6.63;;;6.03;;
46318;SDS011;32042;50.916;2.926;2023-03-01T00:49:49;8.67;;;5.83;;
46318;SDS011;32042;50.916;2.926;2023-03-01T00:52:15;5.90;;;5.30;;
46318;SDS011;32042;50.916;2.926;2023-03-01T00:54:41;6.27;;;5.57;;
46318;SDS011;32042;50.916;2.926;2023-03-01T00:57:07;6.33;;;5.73;;
46318;SDS011;32042;50.916;2.926;2023-03-01T00:59:33;6.40;;;5.80;;
46318;SDS011;32042;50.916;2.926;2023-03-01T01:01:59;8.03;;;5.17;;
46318;SDS011;32042;50.916;2.926;2023-03-01T01:04:25;5.80;;;5.30;;
46318;SDS011;32042;50.916;2.926;2023-03-01T01:06:51;6.43;;;5.70;;
46318;SDS011;32042;50.916;2.926;2023-03-01T01:09:17;6.40;;;5.80;;
46318;SDS011;32042;50.916;2.926;2023-03-01T01:11:44;5.50;;;5.00;;
46318;SDS011;32042;50.916;2.926;2023-03-01T01:14:11;6.43;;;5.90;;
46318;SDS011;32042;50.916;2.926;2023-03-01T01:16:37;6.07;;;5.57;;
46318;SDS011;32042;50.916;2.926;2023-03-01T01:19:04;6.50;;;5.63;;
46318;SDS011;32042;50.916;2.926;2023-03-01T01:21:30;6.33;;;5.77;;
46318;SDS011;32042;50.916;2.926;2023-03-01T01:23:56;6.13;;;5.53;;
46318;SDS011;32042;50.916;2.926;2023-03-01T01:26:23;6.27;;;5.67;;
46318;SDS011;32042;50.916;2.926;2023-03-01T01:28:50;5.90;;;5.20;;
46318;SDS011;32042;50.916;2.926;2023-03-01T01:31:16;6.07;;;5.53;;
46318;SDS011;32042;50.916;2.926;2023-03-01T01:33:43;6.10;;;5.50;;
46318;SDS011;32042;50.916;2.926;2023-03-01T01:36:09;5.67;;;5.17;;
46318;SDS011;32042;50.916;2.926;2023-03-01T01:38:36;7.17;;;6.17;;
46318;SDS011;32042;50.916;2.926;2023-03-01T01:41:02;6.50;;;5.83;;
46318;SDS011;32042;50.916;2.926;2023-03-01T01:43:29;6.03;;;5.53;;
46318;SDS011;32042;50.916;2.926;2023-03-01T01:45:59;6.20;;;5.70;;
46318;SDS011;32042;50.916;2.926;2023-03-01T01:48:28;7.53;;;5.80;;
46318;SDS011;32042;50.916;2.926;2023-03-01T01:51:05;6.97;;;6.30;;
46318;SDS011;32042;50.916;2.926;2023-03-01T01:53:32;7.30;;;6.60;;
46318;SDS011;32042;50.916;2.926;2023-03-01T01:55:58;7.00;;;6.30;;
46318;SDS011;32042;50.916;2.926;2023-03-01T01:58:26;8.30;;;7.50;;
46318;SDS011;32042;50.916;2.926;2023-03-01T02:00:52;7.17;;;6.57;;
46318;SDS011;32042;50.916;2.926;2023-03-01T02:03:20;9.37;;;7.20;;
46318;SDS011;32042;50.916;2.926;2023-03-01T02:05:52;8.50;;;7.73;;
46318;SDS011;32042;50.916;2.926;2023-03-01T02:08:20;8.07;;;7.27;;
46318;SDS011;32042;50.916;2.926;2023-03-01T02:10:47;7.77;;;7.13;;
46318;SDS011;32042;50.916;2.926;2023-03-01T02:13:14;8.80;;;7.90;;
46318;SDS011;32042;50.916;2.926;2023-03-01T02:15:40;8.87;;;7.97;;
46318;SDS011;32042;50.916;2.926;2023-03-01T02:18:08;9.67;;;8.70;;
46318;SDS011;32042;50.916;2.926;2023-03-01T02:23:04;9.57;;;8.73;;
46318;SDS011;32042;50.916;2.926;2023-03-01T02:25:35;18.50;;;8.13;;
46318;SDS011;32042;50.916;2.926;2023-03-01T02:30:47;10.40;;;9.07;;
46318;SDS011;32042;50.916;2.926;2023-03-01T02:33:35;8.87;;;8.07;;
46318;SDS011;32042;50.916;2.926;2023-03-01T02:36:06;10.67;;;8.97;;
46318;SDS011;32042;50.916;2.926;2023-03-01T02:38:35;10.30;;;9.30;;
46318;SDS011;32042;50.916;2.926;2023-03-01T02:41:02;10.57;;;9.57;;
46318;SDS011;32042;50.916;2.926;2023-03-01T02:43:30;10.20;;;9.20;;
46318;SDS011;32042;50.916;2.926;2023-03-01T02:45:58;10.53;;;9.53;;
46318;SDS011;32042;50.916;2.926;2023-03-01T02:48:25;10.53;;;9.57;;
46318;SDS011;32042;50.916;2.926;2023-03-01T02:56:36;11.47;;;10.00;;
46318;SDS011;32042;50.916;2.926;2023-03-01T02:59:02;10.70;;;9.73;;
46318;SDS011;32042;50.916;2.926;2023-03-01T03:01:28;10.73;;;9.83;;
46318;SDS011;32042;50.916;2.926;2023-03-01T03:04:04;11.80;;;10.60;;
46318;SDS011;32042;50.916;2.926;2023-03-01T03:06:30;11.70;;;9.83;;
46318;SDS011;32042;50.916;2.926;2023-03-01T03:08:56;11.33;;;10.33;;
46318;SDS011;32042;50.916;2.926;2023-03-01T03:11:22;11.00;;;9.90;;
46318;SDS011;32042;50.916;2.926;2023-03-01T03:13:48;11.33;;;10.23;;
46318;SDS011;32042;50.916;2.926;2023-03-01T03:16:15;11.30;;;10.00;;
46318;SDS011;32042;50.916;2.926;2023-03-01T03:18:41;11.87;;;10.77;;
46318;SDS011;32042;50.916;2.926;2023-03-01T03:21:08;11.60;;;10.40;;
46318;SDS011;32042;50.916;2.926;2023-03-01T03:23:37;10.60;;;9.60;;
46318;SDS011;32042;50.916;2.926;2023-03-01T03:26:03;11.20;;;10.20;;
46318;SDS011;32042;50.916;2.926;2023-03-01T03:28:30;17.73;;;10.77;;
46318;SDS011;32042;50.916;2.926;2023-03-01T03:30:57;10.90;;;9.80;;
46318;SDS011;32042;50.916;2.926;2023-03-01T03:33:23;10.50;;;9.60;;
46318;SDS011;32042;50.916;2.926;2023-03-01T03:35:49;11.63;;;10.53;;
46318;SDS011;32042;50.916;2.926;2023-03-01T03:38:16;11.53;;;10.50;;
46318;SDS011;32042;50.916;2.926;2023-03-01T03:43:20;12.37;;;11.17;;
46318;SDS011;32042;50.916;2.926;2023-03-01T03:45:46;12.37;;;11.10;;
46318;SDS011;32042;50.916;2.926;2023-03-01T03:48:13;11.57;;;10.37;;
46318;SDS011;32042;50.916;2.926;2023-03-01T03:50:39;12.47;;;11.17;;
46318;SDS011;32042;50.916;2.926;2023-03-01T03:53:07;12.40;;;11.20;;
46318;SDS011;32042;50.916;2.926;2023-03-01T03:55:33;12.40;;;11.10;;
46318;SDS011;32042;50.916;2.926;2023-03-01T03:58:00;12.37;;;11.17;;
46318;SDS011;32042;50.916;2.926;2023-03-01T04:00:31;12.60;;;11.03;;
46318;SDS011;32042;50.916;2.926;2023-03-01T04:02:57;14.13;;;11.37;;
46318;SDS011;32042;50.916;2.926;2023-03-01T04:05:23;13.83;;;11.47;;
46318;SDS011;32042;50.916;2.926;2023-03-01T04:07:49;11.87;;;10.73;;
46318;SDS011;32042;50.916;2.926;2023-03-01T04:10:26;13.03;;;10.97;;
46318;SDS011;32042;50.916;2.926;2023-03-01T04:12:52;13.03;;;11.67;;
46318;SDS011;32042;50.916;2.926;2023-03-01T04:15:21;15.63;;;12.23;;
46318;SDS011;32042;50.916;2.926;2023-03-01T04:17:49;12.50;;;10.70;;
46318;SDS011;32042;50.916;2.926;2023-03-01T04:20:16;17.27;;;13.57;;
46318;SDS011;32042;50.916;2.926;2023-03-01T04:22:43;42.40;;;27.47;;
46318;SDS011;32042;50.916;2.926;2023-03-01T04:25:13;45.20;;;26.60;;
46318;SDS011;32042;50.916;2.926;2023-03-01T04:27:39;25.97;;;18.33;;
46318;SDS011;32042;50.916;2.926;2023-03-01T04:30:06;18.50;;;14.20;;
46318;SDS011;32042;50.916;2.926;2023-03-01T04:32:33;31.37;;;23.67;;
46318;SDS011;32042;50.916;2.926;2023-03-01T04:34:59;21.50;;;18.23;;
46318;SDS011;32042;50.916;2.926;2023-03-01T04:37:25;17.13;;;15.07;;
46318;SDS011;32042;50.916;2.926;2023-03-01T04:39:51;13.87;;;12.17;;
46318;SDS011;32042;50.916;2.926;2023-03-01T04:42:18;14.43;;;12.00;;
46318;SDS011;32042;50.916;2.926;2023-03-01T04:44:44;13.43;;;12.03;;
46318;SDS011;32042;50.916;2.926;2023-03-01T04:47:11;13.83;;;12.33;;
46318;SDS011;32042;50.916;2.926;2023-03-01T04:49:37;13.20;;;11.97;;
46318;SDS011;32042;50.916;2.926;2023-03-01T04:52:06;13.63;;;12.00;;
46318;SDS011;32042;50.916;2.926;2023-03-01T04:54:33;13.30;;;12.00;;
46318;SDS011;32042;50.916;2.926;2023-03-01T04:56:59;12.17;;;10.90;;
46318;SDS011;32042;50.916;2.926;2023-03-01T04:59:25;13.37;;;11.93;;
46318;SDS011;32042;50.916;2.926;2023-03-01T05:01:52;11.83;;;10.63;;
46318;SDS011;32042;50.916;2.926;2023-03-01T05:04:20;15.53;;;11.57;;
46318;SDS011;32042;50.916;2.926;2023-03-01T05:06:46;15.17;;;11.87;;
46318;SDS011;32042;50.916;2.926;2023-03-01T05:09:12;12.57;;;11.37;;
46318;SDS011;32042;50.916;2.926;2023-03-01T05:11:38;13.80;;;11.93;;
46318;SDS011;32042;50.916;2.926;2023-03-01T05:14:05;12.83;;;11.23;;
46318;SDS011;32042;50.916;2.926;2023-03-01T05:16:32;16.33;;;12.20;;
46318;SDS011;32042;50.916;2.926;2023-03-01T05:18:58;14.43;;;11.53;;
46318;SDS011;32042;50.916;2.926;2023-03-01T05:21:25;12.33;;;11.13;;
46318;SDS011;32042;50.916;2.926;2023-03-01T05:23:51;12.57;;;11.20;;
46318;SDS011;32042;50.916;2.926;2023-03-01T05:26:18;12.63;;;11.40;;
46318;SDS011;32042;50.916;2.926;2023-03-01T05:28:46;12.57;;;11.27;;
46318;SDS011;32042;50.916;2.926;2023-03-01T05:31:13;12.83;;;11.53;;
46318;SDS011;32042;50.916;2.926;2023-03-01T05:33:40;13.33;;;12.03;;
46318;SDS011;32042;50.916;2.926;2023-03-01T05:36:06;12.47;;;11.17;;
46318;SDS011;32042;50.916;2.926;2023-03-01T05:38:33;11.40;;;10.43;;
46318;SDS011;32042;50.916;2.926;2023-03-01T05:40:59;13.80;;;12.40;;
46318;SDS011;32042;50.916;2.926;2023-03-01T05:43:25;13.90;;;12.23;;
46318;SDS011;32042;50.916;2.926;2023-03-01T05:45:52;14.13;;;12.63;;
46318;SDS011;32042;50.916;2.926;2023-03-01T05:48:18;13.40;;;11.97;;
46318;SDS011;32042;50.916;2.926;2023-03-01T05:50:44;15.40;;;12.93;;
46318;SDS011;32042;50.916;2.926;2023-03-01T05:53:16;12.93;;;11.60;;
46318;SDS011;32042;50.916;2.926;2023-03-01T05:55:44;14.83;;;12.80;;
46318;SDS011;32042;50.916;2.926;2023-03-01T05:58:13;14.40;;;12.90;;
46318;SDS011;32042;50.916;2.926;2023-03-01T06:00:41;15.33;;;13.67;;
46318;SDS011;32042;50.916;2.926;2023-03-01T06:03:09;15.67;;;13.97;;
46318;SDS011;32042;50.916;2.926;2023-03-01T06:05:36;21.37;;;14.60;;
46318;SDS011;32042;50.916;2.926;2023-03-01T06:08:02;13.90;;;12.60;;
46318;SDS011;32042;50.916;2.926;2023-03-01T06:10:28;16.57;;;12.77;;
46318;SDS011;32042;50.916;2.926;2023-03-01T06:12:55;87.30;;;46.50;;
46318;SDS011;32042;50.916;2.926;2023-03-01T06:15:21;65.57;;;38.40;;
46318;SDS011;32042;50.916;2.926;2023-03-01T06:17:47;44.37;;;30.77;;
46318;SDS011;32042;50.916;2.926;2023-03-01T06:20:14;69.43;;;34.23;;
46318;SDS011;32042;50.916;2.926;2023-03-01T06:22:41;29.00;;;19.57;;
46318;SDS011;32042;50.916;2.926;2023-03-01T06:25:08;18.67;;;14.53;;
46318;SDS011;32042;50.916;2.926;2023-03-01T06:27:34;16.23;;;12.87;;
46318;SDS011;32042;50.916;2.926;2023-03-01T06:30:00;14.50;;;13.00;;
46318;SDS011;32042;50.916;2.926;2023-03-01T06:32:26;15.33;;;13.53;;
46318;SDS011;32042;50.916;2.926;2023-03-01T06:34:52;17.90;;;14.00;;
46318;SDS011;32042;50.916;2.926;2023-03-01T06:37:18;15.67;;;12.53;;
46318;SDS011;32042;50.916;2.926;2023-03-01T06:39:44;14.20;;;12.03;;
46318;SDS011;32042;50.916;2.926;2023-03-01T06:42:10;19.67;;;13.20;;
46318;SDS011;32042;50.916;2.926;2023-03-01T06:44:37;23.40;;;12.97;;
46318;SDS011;32042;50.916;2.926;2023-03-01T06:47:03;14.50;;;12.33;;
46318;SDS011;32042;50.916;2.926;2023-03-01T06:49:29;15.57;;;12.03;;
46318;SDS011;32042;50.916;2.926;2023-03-01T06:51:55;14.10;;;12.60;;
46318;SDS011;32042;50.916;2.926;2023-03-01T06:54:21;16.70;;;12.23;;
46318;SDS011;32042;50.916;2.926;2023-03-01T06:56:48;18.57;;;13.30;;
46318;SDS011;32042;50.916;2.926;2023-03-01T06:59:15;17.43;;;12.93;;
46318;SDS011;32042;50.916;2.926;2023-03-01T07:01:41;16.37;;;12.07;;
46318;SDS011;32042;50.916;2.926;2023-03-01T07:04:08;16.10;;;12.97;;
46318;SDS011;32042;50.916;2.926;2023-03-01T07:06:34;17.63;;;13.57;;
46318;SDS011;32042;50.916;2.926;2023-03-01T07:09:00;19.53;;;12.03;;
46318;SDS011;32042;50.916;2.926;2023-03-01T07:11:26;18.00;;;13.70;;
46318;SDS011;32042;50.916;2.926;2023-03-01T07:13:52;17.80;;;13.10;;
46318;SDS011;32042;50.916;2.926;2023-03-01T07:16:19;20.10;;;13.50;;
46318;SDS011;32042;50.916;2.926;2023-03-01T07:18:45;14.93;;;12.07;;
46318;SDS011;32042;50.916;2.926;2023-03-01T07:21:12;16.37;;;12.70;;
46318;SDS011;32042;50.916;2.926;2023-03-01T07:23:38;16.17;;;12.03;;
46318;SDS011;32042;50.916;2.926;2023-03-01T07:26:04;14.97;;;12.57;;
46318;SDS011;32042;50.916;2.926;2023-03-01T07:28:30;17.27;;;12.37;;
46318;SDS011;32042;50.916;2.926;2023-03-01T07:31:01;17.17;;;12.57;;
46318;SDS011;32042;50.916;2.926;2023-03-01T07:33:27;15.30;;;12.00;;
46318;SDS011;32042;50.916;2.926;2023-03-01T07:35:57;18.43;;;13.60;;
46318;SDS011;32042;50.916;2.926;2023-03-01T07:38:23;21.27;;;14.30;;
46318;SDS011;32042;50.916;2.926;2023-03-01T07:40:49;19.70;;;13.83;;
46318;SDS011;32042;50.916;2.926;2023-03-01T07:43:15;18.37;;;12.63;;
46318;SDS011;32042;50.916;2.926;2023-03-01T07:45:41;17.73;;;12.43;;
46318;SDS011;32042;50.916;2.926;2023-03-01T07:48:07;15.17;;;11.73;;
46318;SDS011;32042;50.916;2.926;2023-03-01T07:50:34;14.13;;;12.37;;
46318;SDS011;32042;50.916;2.926;2023-03-01T07:53:00;13.40;;;12.10;;
46318;SDS011;32042;50.916;2.926;2023-03-01T07:55:27;18.07;;;11.67;;
46318;SDS011;32042;50.916;2.926;2023-03-01T07:57:53;12.63;;;11.33;;
46318;SDS011;32042;50.916;2.926;2023-03-01T08:00:19;13.07;;;11.43;;
46318;SDS011;32042;50.916;2.926;2023-03-01T08:02:45;11.50;;;10.20;;
46318;SDS011;32042;50.916;2.926;2023-03-01T08:05:11;12.47;;;11.03;;
46318;SDS011;32042;50.916;2.926;2023-03-01T08:07:37;12.90;;;10.57;;
46318;SDS011;32042;50.916;2.926;2023-03-01T08:10:03;14.87;;;10.87;;
46318;SDS011;32042;50.916;2.926;2023-03-01T08:12:30;11.33;;;10.13;;
46318;SDS011;32042;50.916;2.926;2023-03-01T08:14:56;15.37;;;10.33;;
46318;SDS011;32042;50.916;2.926;2023-03-01T08:17:22;13.87;;;10.73;;
46318;SDS011;32042;50.916;2.926;2023-03-01T08:19:48;11.33;;;10.20;;
46318;SDS011;32042;50.916;2.926;2023-03-01T08:22:14;11.27;;;9.67;;
46318;SDS011;32042;50.916;2.926;2023-03-01T08:24:40;11.07;;;9.43;;
46318;SDS011;32042;50.916;2.926;2023-03-01T08:27:06;10.47;;;9.50;;
46318;SDS011;32042;50.916;2.926;2023-03-01T08:29:33;10.53;;;9.50;;
46318;SDS011;32042;50.916;2.926;2023-03-01T08:31:59;13.60;;;9.30;;
46318;SDS011;32042;50.916;2.926;2023-03-01T08:34:25;9.73;;;8.83;;
46318;SDS011;32042;50.916;2.926;2023-03-01T08:36:52;11.97;;;10.13;;
46318;SDS011;32042;50.916;2.926;2023-03-01T08:39:18;9.83;;;8.83;;
46318;SDS011;32042;50.916;2.926;2023-03-01T08:41:45;11.67;;;8.87;;
46318;SDS011;32042;50.916;2.926;2023-03-01T08:44:12;9.93;;;9.00;;
46318;SDS011;32042;50.916;2.926;2023-03-01T08:46:39;13.37;;;9.07;;
46318;SDS011;32042;50.916;2.926;2023-03-01T08:49:06;9.50;;;8.43;;
46318;SDS011;32042;50.916;2.926;2023-03-01T08:51:32;10.20;;;9.00;;
46318;SDS011;32042;50.916;2.926;2023-03-01T08:54:02;8.97;;;8.07;;
46318;SDS011;32042;50.916;2.926;2023-03-01T08:56:28;9.53;;;7.60;;
46318;SDS011;32042;50.916;2.926;2023-03-01T08:58:54;12.30;;;8.50;;
46318;SDS011;32042;50.916;2.926;2023-03-01T09:01:20;10.87;;;7.87;;
46318;SDS011;32042;50.916;2.926;2023-03-01T09:03:46;9.47;;;8.37;;
46318;SDS011;32042;50.916;2.926;2023-03-01T09:06:13;8.10;;;7.40;;
46318;SDS011;32042;50.916;2.926;2023-03-01T09:08:40;9.60;;;7.13;;
46318;SDS011;32042;50.916;2.926;2023-03-01T09:11:07;8.73;;;7.03;;
46318;SDS011;32042;50.916;2.926;2023-03-01T09:13:34;7.50;;;6.73;;
46318;SDS011;32042;50.916;2.926;2023-03-01T09:16:01;12.30;;;6.57;;
46318;SDS011;32042;50.916;2.926;2023-03-01T09:18:27;7.57;;;5.70;;
46318;SDS011;32042;50.916;2.926;2023-03-01T09:20:59;8.03;;;6.60;;
46318;SDS011;32042;50.916;2.926;2023-03-01T09:23:25;6.53;;;5.90;;
46318;SDS011;32042;50.916;2.926;2023-03-01T09:25:52;8.30;;;6.37;;
46318;SDS011;32042;50.916;2.926;2023-03-01T09:28:18;6.97;;;5.93;;
46318;SDS011;32042;50.916;2.926;2023-03-01T09:30:44;9.97;;;5.60;;
46318;SDS011;32042;50.916;2.926;2023-03-01T09:33:10;5.93;;;5.33;;
46318;SDS011;32042;50.916;2.926;2023-03-01T09:35:39;7.17;;;5.37;;
46318;SDS011;32042;50.916;2.926;2023-03-01T09:38:11;5.47;;;4.97;;
46318;SDS011;32042;50.916;2.926;2023-03-01T09:40:41;6.20;;;4.87;;
46318;SDS011;32042;50.916;2.926;2023-03-01T09:43:08;7.17;;;5.03;;
46318;SDS011;32042;50.916;2.926;2023-03-01T09:45:40;5.03;;;4.53;;
46318;SDS011;32042;50.916;2.926;2023-03-01T09:48:10;7.63;;;4.10;;
46318;SDS011;32042;50.916;2.926;2023-03-01T09:50:39;4.27;;;3.67;;
46318;SDS011;32042;50.916;2.926;2023-03-01T09:53:10;7.10;;;4.60;;
46318;SDS011;32042;50.916;2.926;2023-03-01T09:55:37;6.53;;;4.03;;
46318;SDS011;32042;50.916;2.926;2023-03-01T10:04:04;4.30;;;3.87;;
46318;SDS011;32042;50.916;2.926;2023-03-01T10:11:04;4.77;;;3.70;;
46318;SDS011;32042;50.916;2.926;2023-03-01T10:13:43;7.37;;;4.20;;
46318;SDS011;32042;50.916;2.926;2023-03-01T10:16:16;3.37;;;3.07;;
46318;SDS011;32042;50.916;2.926;2023-03-01T10:18:43;5.27;;;3.63;;
46318;SDS011;32042;50.916;2.926;2023-03-01T10:21:13;5.80;;;3.73;;
46318;SDS011;32042;50.916;2.926;2023-03-01T10:23:41;4.93;;;3.40;;
46318;SDS011;32042;50.916;2.926;2023-03-01T10:28:50;4.70;;;3.43;;
46318;SDS011;32042;50.916;2.926;2023-03-01T10:31:20;4.03;;;3.63;;
46318;SDS011;32042;50.916;2.926;2023-03-01T10:33:48;3.40;;;3.10;;
46318;SDS011;32042;50.916;2.926;2023-03-01T10:36:19;8.50;;;3.97;;
46318;SDS011;32042;50.916;2.926;2023-03-01T10:38:47;5.93;;;3.10;;
46318;SDS011;32042;50.916;2.926;2023-03-01T10:41:13;5.13;;;3.33;;
46318;SDS011;32042;50.916;2.926;2023-03-01T10:46:25;6.80;;;3.60;;
46318;SDS011;32042;50.916;2.926;2023-03-01T10:51:50;5.47;;;3.60;;
46318;SDS011;32042;50.916;2.926;2023-03-01T10:54:30;5.50;;;3.70;;
46318;SDS011;32042;50.916;2.926;2023-03-01T10:56:58;4.63;;;3.83;;
46318;SDS011;32042;50.916;2.926;2023-03-01T10:59:45;4.33;;;3.67;;
46318;SDS011;32042;50.916;2.926;2023-03-01T11:02:25;4.30;;;3.90;;
46318;SDS011;32042;50.916;2.926;2023-03-01T11:04:59;4.90;;;4.07;;
46318;SDS011;32042;50.916;2.926;2023-03-01T11:07:26;6.53;;;4.37;;
46318;SDS011;32042;50.916;2.926;2023-03-01T11:09:52;3.80;;;3.40;;
46318;SDS011;32042;50.916;2.926;2023-03-01T11:12:18;3.37;;;3.00;;
46318;SDS011;32042;50.916;2.926;2023-03-01T11:14:47;5.03;;;3.53;;
46318;SDS011;32042;50.916;2.926;2023-03-01T11:17:19;12.93;;;3.67;;
46318;SDS011;32042;50.916;2.926;2023-03-01T11:25:30;5.50;;;3.80;;
46318;SDS011;32042;50.916;2.926;2023-03-01T11:27:57;5.37;;;3.97;;
46318;SDS011;32042;50.916;2.926;2023-03-01T11:32:53;3.73;;;3.10;;
46318;SDS011;32042;50.916;2.926;2023-03-01T11:35:21;6.87;;;4.37;;
46318;SDS011;32042;50.916;2.926;2023-03-01T11:45:42;3.53;;;3.17;;
46318;SDS011;32042;50.916;2.926;2023-03-01T11:50:53;4.40;;;4.00;;
46318;SDS011;32042;50.916;2.926;2023-03-01T12:00:57;4.70;;;3.90;;
46318;SDS011;32042;50.916;2.926;2023-03-01T12:31:14;4.33;;;3.20;;
46318;SDS011;32042;50.916;2.926;2023-03-01T12:39:18;4.27;;;3.87;;
46318;SDS011;32042;50.916;2.926;2023-03-01T12:41:51;5.77;;;3.60;;
46318;SDS011;32042;50.916;2.926;2023-03-01T12:47:05;5.60;;;2.93;;
46318;SDS011;32042;50.916;2.926;2023-03-01T12:49:44;7.87;;;4.40;;
46318;SDS011;32042;50.916;2.926;2023-03-01T12:54:40;6.83;;;3.67;;
46318;SDS011;32042;50.916;2.926;2023-03-01T13:04:44;3.90;;;3.40;;
46318;SDS011;32042;50.916;2.926;2023-03-01T13:07:19;4.00;;;3.30;;
46318;SDS011;32042;50.916;2.926;2023-03-01T13:12:42;6.00;;;3.77;;
46318;SDS011;32042;50.916;2.926;2023-03-01T13:17:47;3.80;;;3.33;;
46318;SDS011;32042;50.916;2.926;2023-03-01T13:20:17;3.47;;;3.17;;
46318;SDS011;32042;50.916;2.926;2023-03-01T13:22:45;4.23;;;3.43;;
46318;SDS011;32042;50.916;2.926;2023-03-01T13:25:13;3.27;;;2.97;;
46318;SDS011;32042;50.916;2.926;2023-03-01T13:27:40;6.20;;;3.70;;
46318;SDS011;32042;50.916;2.926;2023-03-01T13:30:38;4.83;;;4.13;;
46318;SDS011;32042;50.916;2.926;2023-03-01T13:32:52;5.10;;;3.80;;
46318;SDS011;32042;50.916;2.926;2023-03-01T13:35:42;3.43;;;3.13;;
46318;SDS011;32042;50.916;2.926;2023-03-01T13:43:25;6.13;;;4.20;;
46318;SDS011;32042;50.916;2.926;2023-03-01T13:45:54;4.53;;;4.13;;
46318;SDS011;32042;50.916;2.926;2023-03-01T13:48:24;4.77;;;4.00;;
46318;SDS011;32042;50.916;2.926;2023-03-01T13:50:51;6.23;;;3.93;;
46318;SDS011;32042;50.916;2.926;2023-03-01T13:53:20;4.70;;;3.70;;
46318;SDS011;32042;50.916;2.926;2023-03-01T13:55:48;5.00;;;3.80;;
46318;SDS011;32042;50.916;2.926;2023-03-01T13:58:26;4.57;;;4.17;;
46318;SDS011;32042;50.916;2.926;2023-03-01T14:00:57;7.10;;;4.73;;
46318;SDS011;32042;50.916;2.926;2023-03-01T14:03:24;4.60;;;4.10;;
46318;SDS011;32042;50.916;2.926;2023-03-01T14:06:06;5.17;;;4.23;;
46318;SDS011;32042;50.916;2.926;2023-03-01T14:08:33;4.80;;;4.00;;
46318;SDS011;32042;50.916;2.926;2023-03-01T14:16:05;6.50;;;3.70;;
46318;SDS011;32042;50.916;2.926;2023-03-01T14:18:57;5.07;;;4.50;;
46318;SDS011;32042;50.916;2.926;2023-03-01T14:21:24;6.43;;;5.23;;
46318;SDS011;32042;50.916;2.926;2023-03-01T14:23:51;5.00;;;4.30;;
46318;SDS011;32042;50.916;2.926;2023-03-01T14:26:21;7.77;;;4.80;;
46318;SDS011;32042;50.916;2.926;2023-03-01T14:28:47;4.90;;;4.50;;
46318;SDS011;32042;50.916;2.926;2023-03-01T14:33:59;4.23;;;3.83;;
46318;SDS011;32042;50.916;2.926;2023-03-01T14:36:29;4.90;;;4.00;;
46318;SDS011;32042;50.916;2.926;2023-03-01T14:38:55;4.70;;;3.87;;
46318;SDS011;32042;50.916;2.926;2023-03-01T14:41:29;4.80;;;4.27;;
46318;SDS011;32042;50.916;2.926;2023-03-01T14:43:57;4.93;;;4.50;;
46318;SDS011;32042;50.916;2.926;2023-03-01T14:46:25;6.43;;;4.23;;
46318;SDS011;32042;50.916;2.926;2023-03-01T14:48:53;7.27;;;4.57;;
46318;SDS011;32042;50.916;2.926;2023-03-01T14:51:20;5.43;;;4.90;;
46318;SDS011;32042;50.916;2.926;2023-03-01T14:53:46;5.67;;;4.23;;
46318;SDS011;32042;50.916;2.926;2023-03-01T14:56:13;4.53;;;3.67;;
46318;SDS011;32042;50.916;2.926;2023-03-01T14:58:39;5.00;;;4.30;;
46318;SDS011;32042;50.916;2.926;2023-03-01T15:01:06;5.00;;;4.50;;
46318;SDS011;32042;50.916;2.926;2023-03-01T15:03:35;4.53;;;4.20;;
46318;SDS011;32042;50.916;2.926;2023-03-01T15:06:02;5.10;;;4.60;;
46318;SDS011;32042;50.916;2.926;2023-03-01T15:08:28;4.80;;;4.40;;
46318;SDS011;32042;50.916;2.926;2023-03-01T15:13:39;5.93;;;5.30;;
46318;SDS011;32042;50.916;2.926;2023-03-01T15:18:34;6.27;;;4.80;;
46318;SDS011;32042;50.916;2.926;2023-03-01T15:21:05;7.77;;;3.83;;
46318;SDS011;32042;50.916;2.926;2023-03-01T15:23:31;5.70;;;4.57;;
46318;SDS011;32042;50.916;2.926;2023-03-01T15:25:57;5.37;;;4.47;;
46318;SDS011;32042;50.916;2.926;2023-03-01T15:28:25;5.30;;;4.80;;
46318;SDS011;32042;50.916;2.926;2023-03-01T15:30:52;5.23;;;4.53;;
46318;SDS011;32042;50.916;2.926;2023-03-01T15:33:27;4.57;;;4.17;;
46318;SDS011;32042;50.916;2.926;2023-03-01T15:35:54;5.47;;;4.43;;
46318;SDS011;32042;50.916;2.926;2023-03-01T15:41:27;4.10;;;3.70;;
46318;SDS011;32042;50.916;2.926;2023-03-01T15:43:56;5.97;;;4.20;;
46318;SDS011;32042;50.916;2.926;2023-03-01T15:48:50;5.20;;;4.37;;
46318;SDS011;32042;50.916;2.926;2023-03-01T15:51:19;6.87;;;4.37;;
46318;SDS011;32042;50.916;2.926;2023-03-01T15:53:48;5.97;;;3.70;;
46318;SDS011;32042;50.916;2.926;2023-03-01T15:56:15;4.60;;;3.60;;
46318;SDS011;32042;50.916;2.926;2023-03-01T15:58:42;5.87;;;4.00;;
46318;SDS011;32042;50.916;2.926;2023-03-01T16:01:12;4.37;;;3.87;;
46318;SDS011;32042;50.916;2.926;2023-03-01T16:03:38;3.83;;;3.53;;
46318;SDS011;32042;50.916;2.926;2023-03-01T16:06:05;4.43;;;3.70;;
46318;SDS011;32042;50.916;2.926;2023-03-01T16:08:31;4.73;;;3.87;;
46318;SDS011;32042;50.916;2.926;2023-03-01T16:10:57;5.07;;;3.97;;
46318;SDS011;32042;50.916;2.926;2023-03-01T16:13:23;4.80;;;3.57;;
46318;SDS011;32042;50.916;2.926;2023-03-01T16:15:50;5.87;;;3.97;;
46318;SDS011;32042;50.916;2.926;2023-03-01T16:18:16;6.20;;;3.73;;
46318;SDS011;32042;50.916;2.926;2023-03-01T16:20:42;6.63;;;4.40;;
46318;SDS011;32042;50.916;2.926;2023-03-01T16:23:09;3.70;;;3.40;;
46318;SDS011;32042;50.916;2.926;2023-03-01T16:25:36;4.73;;;4.07;;
46318;SDS011;32042;50.916;2.926;2023-03-01T16:28:02;4.20;;;3.80;;
46318;SDS011;32042;50.916;2.926;2023-03-01T16:30:33;4.23;;;3.87;;
46318;SDS011;32042;50.916;2.926;2023-03-01T16:33:00;6.27;;;4.00;;
46318;SDS011;32042;50.916;2.926;2023-03-01T16:35:26;4.77;;;4.33;;
46318;SDS011;32042;50.916;2.926;2023-03-01T16:37:54;5.17;;;4.20;;
46318;SDS011;32042;50.916;2.926;2023-03-01T16:40:24;6.17;;;4.43;;
46318;SDS011;32042;50.916;2.926;2023-03-01T16:42:52;8.03;;;4.67;;
46318;SDS011;32042;50.916;2.926;2023-03-01T16:45:18;5.37;;;4.43;;
46318;SDS011;32042;50.916;2.926;2023-03-01T16:47:45;6.10;;;4.47;;
46318;SDS011;32042;50.916;2.926;2023-03-01T16:50:11;6.13;;;4.80;;
46318;SDS011;32042;50.916;2.926;2023-03-01T16:52:37;8.83;;;4.83;;
46318;SDS011;32042;50.916;2.926;2023-03-01T16:55:03;4.20;;;3.80;;
46318;SDS011;32042;50.916;2.926;2023-03-01T16:57:29;4.13;;;3.83;;